Terminal Aerodrome Forecast
Issued by NWS

Home | Current Version | Previous Version | Text Only | Print | Product List | Glossary On
Versions: 1 2 3 4 5 6 7 8 9 10 11 12 13 14 15 16 17 18 19 20 21 22 23 24 25 26 27 28 29 30
000
FTUS45 KCYS 180609 CCA
TAFAIA
TAF COR
KAIA 180609Z 1806/1906 33017G25KT P6SM OVC050
      TEMPO 1806/1810 BKN008
     FM181000 32015G23KT P6SM SKC
     FM181600 32018G28KT P6SM SCT250
     FM190000 30007KT P6SM SCT250=

USA.gov is the U.S. government's official web portal to all federal, state and local government web resources and services.